createdAt,value
2022-07-25T00:00:05.381Z,16.29
2022-07-25T00:02:52.418Z,16.27
2022-07-25T00:05:19.495Z,16.29
2022-07-25T00:07:46.491Z,16.21
2022-07-25T00:10:13.388Z,16.23
2022-07-25T00:12:40.543Z,16.23
2022-07-25T00:15:07.900Z,16.19
2022-07-25T00:17:34.870Z,16.16
2022-07-25T00:20:02.142Z,16.18
2022-07-25T00:22:31.358Z,16.17
2022-07-25T00:24:58.356Z,16.21
2022-07-25T00:27:25.792Z,16.21
2022-07-25T00:29:52.696Z,16.21
2022-07-25T00:32:19.861Z,16.24
2022-07-25T00:34:47.203Z,16.24
2022-07-25T00:37:14.415Z,16.23
2022-07-25T00:39:41.513Z,16.30
2022-07-25T00:42:08.779Z,16.32
2022-07-25T00:44:35.881Z,16.25
2022-07-25T00:47:03.419Z,16.24
2022-07-25T00:49:30.574Z,16.10
2022-07-25T00:51:58.683Z,16.06
2022-07-25T00:54:25.651Z,16.02
2022-07-25T00:56:52.960Z,15.98
2022-07-25T00:59:19.974Z,16.04
2022-07-25T01:01:48.656Z,15.98
2022-07-25T01:04:16.815Z,15.94
2022-07-25T01:06:44.179Z,15.99
2022-07-25T01:09:11.419Z,15.94
2022-07-25T01:11:39.139Z,15.91
2022-07-25T01:14:06.858Z,15.89
2022-07-25T01:16:33.972Z,15.93
2022-07-25T01:19:01.310Z,15.93
2022-07-25T01:21:28.246Z,16.01
2022-07-25T01:23:55.194Z,15.92
2022-07-25T01:26:22.514Z,15.92
2022-07-25T01:28:49.417Z,15.96
2022-07-25T01:31:16.323Z,15.94
2022-07-25T01:33:43.791Z,15.97
2022-07-25T01:36:11.126Z,15.87
2022-07-25T01:38:37.985Z,15.86
2022-07-25T01:41:05.190Z,15.81
2022-07-25T01:43:32.052Z,15.88
2022-07-25T01:45:59.021Z,15.87
2022-07-25T01:48:26.372Z,15.85
2022-07-25T01:50:53.613Z,15.92
2022-07-25T01:53:21.384Z,15.87
2022-07-25T01:55:48.945Z,15.88
2022-07-25T01:58:15.808Z,15.86
2022-07-25T02:00:44.586Z,15.89
2022-07-25T02:03:30.108Z,15.93
2022-07-25T02:06:01.523Z,15.89
2022-07-25T02:08:29.406Z,15.87
2022-07-25T02:10:57.829Z,15.84
2022-07-25T02:13:25.116Z,15.77
2022-07-25T02:15:52.496Z,15.75
2022-07-25T02:18:19.712Z,15.67
2022-07-25T02:20:46.696Z,15.69
2022-07-25T02:23:13.909Z,15.74
2022-07-25T02:25:40.842Z,15.71
2022-07-25T02:28:07.810Z,15.78
2022-07-25T02:30:38.213Z,15.82
2022-07-25T02:33:05.402Z,15.62
2022-07-25T02:35:32.670Z,15.66
2022-07-25T02:37:59.959Z,15.69
2022-07-25T02:40:27.618Z,15.47
2022-07-25T02:42:54.544Z,15.52
2022-07-25T02:45:21.767Z,15.54
2022-07-25T02:47:48.641Z,15.65
2022-07-25T02:50:15.578Z,15.56
2022-07-25T02:52:43.271Z,15.55
2022-07-25T02:55:10.419Z,15.42
2022-07-25T02:57:37.763Z,15.43
2022-07-25T03:00:05.599Z,15.37
2022-07-25T03:02:32.571Z,15.42
2022-07-25T03:04:59.473Z,15.33
2022-07-25T03:07:26.681Z,15.42
2022-07-25T03:09:53.763Z,15.37
2022-07-25T03:12:20.746Z,15.40
2022-07-25T03:14:47.926Z,15.39
2022-07-25T03:17:14.981Z,15.21
2022-07-25T03:19:41.891Z,15.35
2022-07-25T03:22:09.020Z,15.06
2022-07-25T03:24:36.095Z,15.18
2022-07-25T03:27:03.427Z,15.23
2022-07-25T03:29:30.582Z,15.02
2022-07-25T03:31:58.015Z,15.11
2022-07-25T03:34:25.484Z,15.23
2022-07-25T03:36:52.707Z,15.30
2022-07-25T03:39:20.784Z,15.30
2022-07-25T03:41:48.137Z,15.32
2022-07-25T03:44:15.330Z,15.28
2022-07-25T03:46:42.191Z,15.36
2022-07-25T03:49:09.178Z,15.33
2022-07-25T03:51:36.394Z,15.37
2022-07-25T03:54:04.340Z,15.50
2022-07-25T03:56:43.354Z,15.56
2022-07-25T03:59:13.693Z,15.61
2022-07-25T04:01:41.030Z,15.55
2022-07-25T04:04:08.323Z,15.52
2022-07-25T04:06:36.178Z,15.51
2022-07-25T04:09:03.325Z,15.66
2022-07-25T04:11:31.418Z,15.66
2022-07-25T04:13:58.997Z,15.74
2022-07-25T04:16:27.844Z,15.72
2022-07-25T04:18:55.362Z,15.89
2022-07-25T04:21:23.951Z,15.55
2022-07-25T04:23:51.038Z,15.62
2022-07-25T04:26:18.164Z,15.80
2022-07-25T04:28:45.287Z,15.82
2022-07-25T04:31:12.307Z,15.93
2022-07-25T04:33:40.116Z,16.02
2022-07-25T04:36:07.439Z,16.11
2022-07-25T04:38:34.818Z,16.02
2022-07-25T04:41:02.037Z,16.10
2022-07-25T04:43:29.307Z,16.21
2022-07-25T04:45:56.459Z,16.54
2022-07-25T04:48:23.464Z,16.62
2022-07-25T04:50:50.790Z,16.68
2022-07-25T04:53:17.874Z,16.86
2022-07-25T04:55:44.770Z,16.90
2022-07-25T04:58:11.926Z,17.06
2022-07-25T05:00:38.948Z,16.72
2022-07-25T05:03:05.858Z,16.86
2022-07-25T05:05:33.012Z,17.13
2022-07-25T05:08:00.399Z,17.09
2022-07-25T05:10:28.305Z,17.56
2022-07-25T05:12:56.496Z,17.77
2022-07-25T05:15:23.403Z,17.94
2022-07-25T05:17:50.316Z,18.08
2022-07-25T05:20:17.524Z,18.03
2022-07-25T05:22:44.806Z,17.89
2022-07-25T05:25:12.025Z,18.09
2022-07-25T05:27:39.554Z,18.04
2022-07-25T05:30:07.142Z,18.23
2022-07-25T05:32:34.103Z,18.27
2022-07-25T05:35:01.187Z,18.75
2022-07-25T05:37:28.278Z,19.28
2022-07-25T05:39:55.116Z,19.57
2022-07-25T05:42:22.585Z,19.92
2022-07-25T05:44:49.583Z,20.32
2022-07-25T05:47:16.477Z,20.87
2022-07-25T05:49:45.089Z,22.61
2022-07-25T05:52:13.263Z,24.50
2022-07-25T05:54:40.741Z,25.75
2022-07-25T05:57:07.946Z,26.82
2022-07-25T05:59:34.944Z,27.35
2022-07-25T06:02:02.569Z,28.04
2022-07-25T06:04:30.297Z,28.73
2022-07-25T06:06:57.313Z,29.74
2022-07-25T06:09:24.304Z,30.24
2022-07-25T06:12:00.423Z,30.52
2022-07-25T06:14:28.701Z,31.24
2022-07-25T06:16:55.864Z,31.81
2022-07-25T06:19:23.247Z,32.63
2022-07-25T06:21:50.564Z,33.32
2022-07-25T06:24:17.910Z,33.07
2022-07-25T06:26:44.966Z,32.87
2022-07-25T06:29:12.545Z,32.75
2022-07-25T06:31:40.166Z,33.40
2022-07-25T06:34:08.786Z,34.00
2022-07-25T06:36:36.325Z,33.81
2022-07-25T06:39:04.282Z,33.63
2022-07-25T06:41:31.173Z,34.39
2022-07-25T06:43:58.074Z,34.15
2022-07-25T06:46:26.834Z,34.18
2022-07-25T06:48:53.778Z,34.24
2022-07-25T06:51:23.300Z,34.52
2022-07-25T06:53:50.540Z,34.99
2022-07-25T06:56:17.888Z,34.46
2022-07-25T06:58:45.523Z,34.44
2022-07-25T07:01:12.806Z,34.37
2022-07-25T07:03:40.545Z,34.67
2022-07-25T07:06:09.501Z,34.84
2022-07-25T07:08:36.978Z,35.31
2022-07-25T07:11:04.469Z,35.82
2022-07-25T07:13:31.642Z,35.61
2022-07-25T07:15:59.020Z,36.01
2022-07-25T07:18:26.385Z,36.33
2022-07-25T07:20:53.743Z,36.26
2022-07-25T07:23:20.749Z,36.63
2022-07-25T07:25:47.848Z,38.05
2022-07-25T07:28:14.853Z,37.74
2022-07-25T07:33:29.279Z,38.57
2022-07-25T07:35:58.244Z,39.07
2022-07-25T07:38:25.647Z,39.90
2022-07-25T07:40:52.955Z,39.43
2022-07-25T07:43:20.323Z,38.78
2022-07-25T07:45:47.421Z,38.88
2022-07-25T07:48:14.434Z,38.81
2022-07-25T07:50:41.834Z,38.33
2022-07-25T07:53:08.951Z,37.87
2022-07-25T07:55:45.560Z,37.96
2022-07-25T07:58:15.991Z,37.74
2022-07-25T08:00:44.062Z,37.31
2022-07-25T08:03:11.328Z,37.33
2022-07-25T08:05:40.830Z,36.90
2022-07-25T08:08:09.577Z,37.00
2022-07-25T08:10:37.640Z,37.49
2022-07-25T08:13:14.431Z,37.84
2022-07-25T08:15:41.964Z,38.42
2022-07-25T08:18:16.872Z,38.11
2022-07-25T08:20:45.376Z,38.16
2022-07-25T08:23:13.064Z,37.78
2022-07-25T08:25:40.339Z,37.25
2022-07-25T08:28:07.492Z,37.16
2022-07-25T08:30:36.092Z,37.11
2022-07-25T08:33:04.391Z,37.58
2022-07-25T08:35:31.582Z,36.72
2022-07-25T08:37:59.949Z,36.51
2022-07-25T08:40:28.533Z,36.19
2022-07-25T08:42:56.513Z,36.91
2022-07-25T08:45:24.641Z,37.20
2022-07-25T08:47:52.196Z,37.39
2022-07-25T08:50:20.824Z,37.54
2022-07-25T08:52:48.895Z,37.47
2022-07-25T08:55:17.403Z,37.49
2022-07-25T08:57:44.518Z,37.47
2022-07-25T09:00:13.002Z,37.22
2022-07-25T09:02:40.236Z,37.12
2022-07-25T09:05:07.651Z,37.18
2022-07-25T09:07:34.749Z,36.60
2022-07-25T09:10:14.007Z,36.17
2022-07-25T09:12:41.747Z,36.69
2022-07-25T09:15:09.052Z,37.09
2022-07-25T09:17:38.552Z,37.43
2022-07-25T09:20:08.846Z,37.87
2022-07-25T09:22:43.538Z,37.29
2022-07-25T09:25:27.385Z,36.94
2022-07-25T09:27:54.398Z,37.11
2022-07-25T09:30:21.453Z,36.79
2022-07-25T09:32:48.348Z,36.97
2022-07-25T09:35:15.700Z,36.89
2022-07-25T09:37:42.795Z,37.11
2022-07-25T09:40:14.787Z,37.02
2022-07-25T09:42:43.072Z,36.05
2022-07-25T09:45:12.823Z,36.86
2022-07-25T09:47:51.388Z,36.87
2022-07-25T09:50:19.125Z,37.35
2022-07-25T09:52:46.750Z,38.22
2022-07-25T09:55:16.963Z,37.72
2022-07-25T09:57:45.226Z,38.26
2022-07-25T10:00:17.473Z,38.17
2022-07-25T10:02:51.341Z,39.29
2022-07-25T10:05:20.956Z,39.54
2022-07-25T10:07:49.703Z,39.59
2022-07-25T10:10:21.913Z,39.74
2022-07-25T10:12:59.146Z,40.82
2022-07-25T10:15:26.077Z,41.16
2022-07-25T10:18:02.950Z,41.42
2022-07-25T10:20:30.096Z,40.14
2022-07-25T10:22:58.040Z,39.98
2022-07-25T10:25:25.810Z,40.60
2022-07-25T10:28:00.246Z,41.72
2022-07-25T10:30:28.792Z,40.34
2022-07-25T10:32:57.104Z,40.47
2022-07-25T10:35:25.894Z,41.48
2022-07-25T10:37:54.378Z,40.77
2022-07-25T10:40:28.679Z,40.43
2022-07-25T10:43:02.760Z,40.55
2022-07-25T10:45:59.151Z,41.97
2022-07-25T10:48:27.829Z,42.15
2022-07-25T10:51:00.548Z,41.38
2022-07-25T10:53:28.714Z,40.39
2022-07-25T10:56:05.820Z,41.01
2022-07-25T10:58:59.974Z,42.89
2022-07-25T11:01:28.648Z,42.41
2022-07-25T11:03:57.011Z,42.00
2022-07-25T11:06:40.105Z,43.51
2022-07-25T11:09:18.626Z,44.05
2022-07-25T11:11:51.349Z,41.51
2022-07-25T11:14:19.555Z,42.22
2022-07-25T11:16:47.422Z,41.70
2022-07-25T11:19:17.302Z,43.39
2022-07-25T11:21:45.639Z,42.49
2022-07-25T11:24:12.911Z,40.66
2022-07-25T11:26:50.134Z,42.69
2022-07-25T11:29:20.889Z,43.41
2022-07-25T11:31:54.451Z,42.49
2022-07-25T11:34:23.397Z,41.91
2022-07-25T11:36:51.039Z,41.57
2022-07-25T11:39:19.014Z,40.24
2022-07-25T11:41:46.400Z,40.95
2022-07-25T11:44:13.287Z,42.00
2022-07-25T11:46:41.706Z,41.12
2022-07-25T11:49:09.481Z,40.18
2022-07-25T11:51:37.791Z,40.12
2022-07-25T11:54:11.226Z,42.10
2022-07-25T11:56:42.997Z,40.40
2022-07-25T11:59:11.174Z,41.64
2022-07-25T12:01:41.941Z,41.88
2022-07-25T12:04:09.039Z,40.67
2022-07-25T12:06:35.912Z,40.08
2022-07-25T12:09:18.829Z,39.06
2022-07-25T12:11:47.963Z,37.76
2022-07-25T12:14:15.069Z,37.21
2022-07-25T12:16:42.131Z,37.91
2022-07-25T12:19:10.465Z,37.40
2022-07-25T12:21:37.615Z,37.10
2022-07-25T12:24:04.734Z,36.06
2022-07-25T12:26:31.883Z,35.86
2022-07-25T12:28:58.702Z,35.85
2022-07-25T12:31:28.747Z,35.97
2022-07-25T12:33:56.183Z,35.78
2022-07-25T12:36:23.125Z,35.92
2022-07-25T12:38:50.002Z,35.88
2022-07-25T12:41:22.812Z,35.31
2022-07-25T12:43:49.959Z,34.93
2022-07-25T12:46:17.211Z,34.70
2022-07-25T12:48:44.611Z,34.41
2022-07-25T12:51:11.471Z,34.90
2022-07-25T12:53:42.295Z,34.78
2022-07-25T12:56:09.963Z,34.87
2022-07-25T12:58:37.552Z,35.19
2022-07-25T13:01:05.918Z,35.09
2022-07-25T13:03:33.581Z,34.48
2022-07-25T13:06:00.541Z,34.49
2022-07-25T13:08:27.673Z,34.99
2022-07-25T13:10:54.724Z,34.85
2022-07-25T13:13:21.513Z,34.62
2022-07-25T13:15:48.367Z,34.19
2022-07-25T13:18:15.510Z,34.35
2022-07-25T13:20:42.346Z,33.79
2022-07-25T13:23:09.139Z,34.05
2022-07-25T13:25:36.631Z,34.46
2022-07-25T13:28:10.770Z,34.62
2022-07-25T13:30:38.737Z,34.28
2022-07-25T13:33:05.703Z,34.36
2022-07-25T13:35:38.699Z,34.96
2022-07-25T13:38:06.467Z,34.94
2022-07-25T13:40:33.791Z,34.70
2022-07-25T13:43:00.598Z,34.82
2022-07-25T13:45:27.787Z,34.68
2022-07-25T13:48:26.814Z,34.75
2022-07-25T13:50:41.658Z,34.09
2022-07-25T13:53:08.775Z,33.81
2022-07-25T13:55:35.899Z,33.89
2022-07-25T13:58:02.936Z,33.96
2022-07-25T14:00:29.763Z,33.93
2022-07-25T14:02:56.633Z,33.40
2022-07-25T14:05:24.472Z,33.36
2022-07-25T14:07:51.441Z,33.43
2022-07-25T14:10:18.498Z,32.98
2022-07-25T14:12:45.982Z,33.03
2022-07-25T14:15:12.940Z,33.38
2022-07-25T14:17:39.922Z,33.54
2022-07-25T14:20:07.809Z,33.78
2022-07-25T14:22:34.667Z,33.66
2022-07-25T14:25:01.733Z,33.91
2022-07-25T14:27:28.858Z,33.73
2022-07-25T14:29:55.630Z,33.60
2022-07-25T14:32:23.117Z,33.50
2022-07-25T14:34:51.082Z,33.73
2022-07-25T14:37:19.210Z,33.68
2022-07-25T14:39:46.290Z,33.78
2022-07-25T14:42:13.819Z,33.47
2022-07-25T14:44:40.831Z,33.44
2022-07-25T14:47:11.972Z,33.23
2022-07-25T14:49:40.282Z,32.71
2022-07-25T14:52:07.212Z,32.83
2022-07-25T14:54:34.209Z,32.93
2022-07-25T14:57:01.323Z,32.85
2022-07-25T14:59:30.116Z,32.90
2022-07-25T15:01:57.011Z,33.24
2022-07-25T15:04:25.642Z,33.64
2022-07-25T15:06:53.311Z,33.68
2022-07-25T15:09:20.741Z,33.99
2022-07-25T15:11:48.383Z,33.71
2022-07-25T15:14:15.618Z,33.96
2022-07-25T15:16:43.531Z,33.92
2022-07-25T15:19:16.324Z,33.51
2022-07-25T15:21:44.707Z,33.50
2022-07-25T15:24:12.026Z,33.46
2022-07-25T15:26:38.954Z,33.58
2022-07-25T15:29:10.861Z,33.35
2022-07-25T15:31:38.674Z,32.76
2022-07-25T15:34:05.811Z,32.54
2022-07-25T15:36:32.725Z,32.23
2022-07-25T15:39:00.141Z,32.23
2022-07-25T15:41:27.001Z,31.89
2022-07-25T15:43:54.336Z,31.80
2022-07-25T15:46:21.779Z,31.61
2022-07-25T15:48:49.113Z,31.81
2022-07-25T15:51:16.931Z,31.60
2022-07-25T15:53:44.263Z,31.93
2022-07-25T15:56:14.040Z,31.96
2022-07-25T15:58:40.889Z,31.78
2022-07-25T16:01:08.210Z,31.86
2022-07-25T16:03:35.168Z,31.95
2022-07-25T16:06:04.343Z,31.96
2022-07-25T16:08:32.371Z,32.12
2022-07-25T16:11:00.230Z,32.03
2022-07-25T16:13:27.336Z,32.03
2022-07-25T16:15:54.580Z,31.73
2022-07-25T16:18:21.611Z,31.73
2022-07-25T16:20:48.640Z,31.67
2022-07-25T16:23:15.894Z,31.58
2022-07-25T16:25:43.297Z,31.57
2022-07-25T16:28:10.391Z,31.41
2022-07-25T16:30:37.529Z,31.50
2022-07-25T16:33:04.515Z,31.39
2022-07-25T16:35:31.769Z,31.63
2022-07-25T16:37:59.099Z,31.90
2022-07-25T16:40:30.728Z,31.92
2022-07-25T16:42:59.821Z,31.89
2022-07-25T16:45:27.524Z,32.02
2022-07-25T16:47:54.423Z,31.96
2022-07-25T16:50:22.011Z,31.89
2022-07-25T16:52:49.240Z,31.94
2022-07-25T16:55:16.393Z,31.80
2022-07-25T16:57:43.727Z,31.55
2022-07-25T17:00:11.227Z,31.42
2022-07-25T17:02:38.407Z,31.40
2022-07-25T17:05:05.716Z,31.39
2022-07-25T17:07:32.991Z,31.24
2022-07-25T17:10:00.132Z,31.26
2022-07-25T17:12:27.302Z,31.13
2022-07-25T17:14:54.627Z,31.08
2022-07-25T17:17:21.731Z,31.14
2022-07-25T17:19:48.671Z,31.07
2022-07-25T17:22:16.103Z,30.94
2022-07-25T17:24:43.177Z,30.87
2022-07-25T17:27:10.215Z,30.87
2022-07-25T17:29:37.832Z,30.84
2022-07-25T17:32:06.145Z,30.75
2022-07-25T17:34:33.201Z,30.81
2022-07-25T17:37:03.519Z,30.76
2022-07-25T17:39:31.136Z,30.72
2022-07-25T17:41:58.140Z,30.41
2022-07-25T17:44:25.951Z,30.31
2022-07-25T17:46:54.084Z,30.19
2022-07-25T17:49:21.983Z,30.22
2022-07-25T17:51:49.904Z,30.19
2022-07-25T17:54:17.160Z,29.99
2022-07-25T17:56:45.669Z,30.04
2022-07-25T17:59:13.910Z,29.96
2022-07-25T18:01:41.222Z,29.92
2022-07-25T18:04:08.951Z,29.87
2022-07-25T18:06:36.911Z,29.72
2022-07-25T18:09:04.334Z,29.62
2022-07-25T18:11:31.674Z,29.57
2022-07-25T18:13:59.939Z,29.30
2022-07-25T18:16:27.118Z,29.27
2022-07-25T18:18:54.618Z,29.18
2022-07-25T18:21:22.278Z,28.79
2022-07-25T18:23:49.730Z,28.21
2022-07-25T18:26:18.232Z,27.52
2022-07-25T18:28:46.158Z,27.23
2022-07-25T18:31:13.164Z,26.94
2022-07-25T18:33:40.567Z,26.50
2022-07-25T18:36:08.151Z,26.33
2022-07-25T18:38:36.357Z,26.09
2022-07-25T18:41:28.104Z,25.76
2022-07-25T18:43:53.233Z,25.23
2022-07-25T18:46:20.596Z,24.57
2022-07-25T18:48:47.876Z,23.66
2022-07-25T18:51:15.449Z,22.95
2022-07-25T18:53:47.395Z,22.49
2022-07-25T18:56:16.085Z,22.26
2022-07-25T18:58:44.612Z,21.99
2022-07-25T19:01:13.608Z,22.23
2022-07-25T19:03:41.168Z,21.79
2022-07-25T19:06:09.373Z,21.44
2022-07-25T19:08:36.873Z,20.98
2022-07-25T19:11:03.856Z,20.89
2022-07-25T19:13:48.807Z,20.84
2022-07-25T19:16:17.385Z,20.42
2022-07-25T19:18:45.392Z,20.60
2022-07-25T19:21:12.587Z,20.81
2022-07-25T19:23:40.070Z,20.77
2022-07-25T19:26:07.718Z,20.77
2022-07-25T19:28:38.326Z,20.85
2022-07-25T19:31:05.621Z,20.99
2022-07-25T19:33:36.215Z,21.17
2022-07-25T19:36:04.518Z,21.32
2022-07-25T19:38:32.878Z,21.34
2022-07-25T19:41:01.059Z,21.51
2022-07-25T19:43:28.002Z,21.42
2022-07-25T19:45:55.468Z,21.62
2022-07-25T19:48:24.975Z,21.65
2022-07-25T19:50:52.419Z,21.68
2022-07-25T19:53:22.152Z,21.70
2022-07-25T19:55:53.559Z,21.71
2022-07-25T19:58:21.384Z,21.99
2022-07-25T20:00:48.546Z,21.67
2022-07-25T20:03:16.159Z,21.57
2022-07-25T20:05:50.767Z,21.55
2022-07-25T20:08:19.096Z,21.77
2022-07-25T20:10:46.468Z,21.84
2022-07-25T20:13:13.614Z,21.90
2022-07-25T20:15:40.831Z,22.00
2022-07-25T20:18:07.912Z,21.95
2022-07-25T20:20:35.609Z,21.99
2022-07-25T20:23:03.813Z,21.97
2022-07-25T20:25:31.072Z,21.93
2022-07-25T20:27:58.249Z,21.98
2022-07-25T20:30:26.476Z,22.00
2022-07-25T20:32:55.613Z,21.91
2022-07-25T20:35:22.657Z,21.96
2022-07-25T20:37:50.301Z,22.02
2022-07-25T20:40:19.594Z,22.06
2022-07-25T20:42:47.442Z,22.05
2022-07-25T20:45:15.045Z,22.00
2022-07-25T20:47:41.943Z,22.02
2022-07-25T20:50:10.133Z,21.91
2022-07-25T20:52:38.119Z,21.89
2022-07-25T20:55:06.672Z,21.83
2022-07-25T20:57:34.505Z,21.74
2022-07-25T21:00:01.835Z,21.69
2022-07-25T21:02:28.794Z,21.68
2022-07-25T21:04:55.761Z,21.39
2022-07-25T21:07:22.855Z,21.43
2022-07-25T21:09:49.892Z,21.36
2022-07-25T21:12:16.836Z,21.44
2022-07-25T21:14:43.936Z,21.47
2022-07-25T21:17:11.048Z,21.53
2022-07-25T21:19:37.909Z,21.53
2022-07-25T21:22:06.352Z,21.47
2022-07-25T21:24:33.322Z,21.53
2022-07-25T21:27:00.133Z,21.42
2022-07-25T21:29:27.343Z,21.43
2022-07-25T21:31:54.396Z,21.43
2022-07-25T21:34:21.346Z,21.43
2022-07-25T21:36:48.493Z,21.37
2022-07-25T21:39:16.718Z,21.40
2022-07-25T21:41:44.151Z,21.29
2022-07-25T21:44:11.408Z,21.26
2022-07-25T21:46:38.222Z,21.25
2022-07-25T21:49:41.173Z,21.22
2022-07-25T21:52:13.298Z,21.18
2022-07-25T21:54:44.258Z,21.24
2022-07-25T21:57:13.396Z,21.11
2022-07-25T21:59:42.180Z,21.19
2022-07-25T22:02:09.182Z,21.09
2022-07-25T22:04:36.603Z,21.07
2022-07-25T22:07:03.898Z,21.02
2022-07-25T22:09:31.223Z,20.95
2022-07-25T22:11:58.778Z,20.88
2022-07-25T22:14:25.561Z,20.78
2022-07-25T22:16:52.940Z,20.81
2022-07-25T22:19:22.569Z,20.74
2022-07-25T22:21:50.025Z,20.72
2022-07-25T22:24:17.029Z,20.82
2022-07-25T22:26:44.117Z,20.78
2022-07-25T22:29:11.631Z,20.58
2022-07-25T22:31:39.385Z,20.69
2022-07-25T22:34:06.550Z,20.70
2022-07-25T22:36:33.513Z,20.64
2022-07-25T22:39:00.321Z,20.63
2022-07-25T22:41:27.911Z,20.54
2022-07-25T22:43:58.918Z,20.39
2022-07-25T22:46:30.206Z,20.40
2022-07-25T22:48:58.312Z,20.48
2022-07-25T22:51:26.570Z,20.40
2022-07-25T22:53:53.890Z,20.37
2022-07-25T22:56:21.366Z,20.12
2022-07-25T22:58:48.733Z,20.30
2022-07-25T23:01:16.380Z,20.25
2022-07-25T23:03:43.605Z,20.14
2022-07-25T23:06:10.646Z,20.05
2022-07-25T23:08:37.569Z,20.12
2022-07-25T23:11:06.266Z,20.11
2022-07-25T23:13:33.698Z,20.12
2022-07-25T23:16:00.888Z,19.93
2022-07-25T23:18:30.817Z,19.86
2022-07-25T23:20:57.760Z,19.88
2022-07-25T23:23:24.749Z,19.92
2022-07-25T23:25:51.938Z,19.84
2022-07-25T23:28:18.831Z,19.85
2022-07-25T23:30:45.756Z,19.72
2022-07-25T23:33:12.841Z,19.63
2022-07-25T23:35:39.729Z,19.54
2022-07-25T23:38:06.608Z,19.54
2022-07-25T23:40:33.864Z,19.53
2022-07-25T23:43:00.644Z,19.40
2022-07-25T23:45:28.603Z,19.40
2022-07-25T23:47:56.487Z,19.42
2022-07-25T23:50:23.651Z,19.39
2022-07-25T23:52:50.890Z,19.49
2022-07-25T23:55:18.013Z,19.38
2022-07-25T23:57:44.959Z,19.39
